createdAt,value
2018-04-23T00:00:44.636Z,1004.96
2018-04-23T00:01:44.648Z,1005.01
2018-04-23T00:03:37.551Z,1005.04
2018-04-23T00:04:37.576Z,1004.99
2018-04-23T00:06:30.508Z,1005.03
2018-04-23T00:07:30.517Z,1005.04
2018-04-23T00:09:23.421Z,1005.05
2018-04-23T00:10:23.445Z,1005.03
2018-04-23T00:12:16.373Z,1005.02
2018-04-23T00:13:16.377Z,1005.01
2018-04-23T00:15:09.305Z,1005.02
2018-04-23T00:16:09.313Z,1004.98
2018-04-23T00:18:02.221Z,1004.98
2018-04-23T00:19:02.240Z,1005.00
2018-04-23T00:20:55.172Z,1004.94
2018-04-23T00:21:55.176Z,1004.95
2018-04-23T00:23:48.087Z,1004.97
2018-04-23T00:24:48.112Z,1004.97
2018-04-23T00:26:41.040Z,1005.06
2018-04-23T00:27:41.041Z,1005.05
2018-04-23T00:29:33.949Z,1005.06
2018-04-23T00:30:33.974Z,1005.07
2018-04-23T00:32:26.902Z,1005.09
2018-04-23T00:33:26.905Z,1005.10
2018-04-23T00:35:19.837Z,1005.07
2018-04-23T00:36:19.842Z,1005.05
2018-04-23T00:38:12.749Z,1004.99
2018-04-23T00:39:12.773Z,1005.00
2018-04-23T00:41:05.704Z,1005.05
2018-04-23T00:42:05.709Z,1005.04
2018-04-23T00:43:58.617Z,1005.04
2018-04-23T00:44:58.643Z,1005.05
2018-04-23T00:46:51.575Z,1005.10
2018-04-23T00:47:51.578Z,1005.15
2018-04-23T00:49:44.490Z,1005.25
2018-04-23T00:50:44.520Z,1005.30
2018-04-23T00:52:37.441Z,1005.45
2018-04-23T00:53:37.444Z,1005.59
2018-04-23T00:55:30.372Z,1005.66
2018-04-23T00:56:30.377Z,1005.55
2018-04-23T00:58:23.287Z,1005.48
2018-04-23T00:59:23.447Z,1005.45
2018-04-23T01:01:16.238Z,1005.48
2018-04-23T01:02:16.245Z,1005.44
2018-04-23T01:04:09.653Z,1005.37
2018-04-23T01:05:09.672Z,1005.39
2018-04-23T01:07:02.599Z,1005.47
2018-04-23T01:08:02.603Z,1005.43
2018-04-23T01:09:55.515Z,1005.48
2018-04-23T01:10:55.537Z,1005.60
2018-04-23T01:12:48.469Z,1005.59
2018-04-23T01:13:48.472Z,1005.65
2018-04-23T01:15:41.402Z,1005.66
2018-04-23T01:16:41.407Z,1005.65
2018-04-23T01:18:34.318Z,1005.67
2018-04-23T01:19:34.345Z,1005.74
2018-04-23T01:21:27.269Z,1005.78
2018-04-23T01:22:27.274Z,1005.74
2018-04-23T01:24:20.184Z,1005.70
2018-04-23T01:25:20.210Z,1005.67
2018-04-23T01:27:13.136Z,1005.71
2018-04-23T01:28:13.141Z,1005.67
2018-04-23T01:30:06.054Z,1005.39
2018-04-23T01:31:06.074Z,1005.36
2018-04-23T01:32:59.006Z,1005.34
2018-04-23T01:33:59.011Z,1005.29
2018-04-23T01:35:51.941Z,1005.18
2018-04-23T01:36:51.945Z,1005.28
2018-04-23T01:38:44.855Z,1005.33
2018-04-23T01:39:44.880Z,1005.34
2018-04-23T01:41:37.812Z,1005.34
2018-04-23T01:42:37.813Z,1005.41
2018-04-23T01:44:30.723Z,1005.48
2018-04-23T01:45:30.749Z,1005.50
2018-04-23T01:47:23.678Z,1005.52
2018-04-23T01:48:23.682Z,1005.52
2018-04-23T01:50:16.589Z,1005.53
2018-04-23T01:51:16.613Z,1005.59
2018-04-23T01:53:09.541Z,1005.63
2018-04-23T01:54:09.548Z,1005.69
2018-04-23T01:56:02.472Z,1005.69
2018-04-23T01:57:02.477Z,1005.69
2018-04-23T01:58:55.388Z,1005.65
2018-04-23T01:59:55.411Z,1005.61
2018-04-23T02:01:48.342Z,1005.71
2018-04-23T02:02:48.345Z,1005.79
2018-04-23T02:04:41.258Z,1005.80
2018-04-23T02:05:41.280Z,1005.78
2018-04-23T02:07:34.207Z,1005.75
2018-04-23T02:08:34.213Z,1005.67
2018-04-23T02:10:27.122Z,1005.68
2018-04-23T02:11:27.146Z,1005.72
2018-04-23T02:13:20.074Z,1005.81
2018-04-23T02:14:20.079Z,1005.88
2018-04-23T02:16:13.010Z,1005.83
2018-04-23T02:17:13.013Z,1005.80
2018-04-23T02:19:05.948Z,1005.77
2018-04-23T02:20:05.949Z,1005.74
2018-04-23T02:21:58.876Z,1005.69
2018-04-23T02:22:58.881Z,1005.67
2018-04-23T02:24:51.789Z,1005.71
2018-04-23T02:25:51.813Z,1005.71
2018-04-23T02:27:44.741Z,1005.65
2018-04-23T02:28:44.745Z,1005.69
2018-04-23T02:30:37.655Z,1005.63
2018-04-23T02:31:37.679Z,1005.63
2018-04-23T02:33:30.607Z,1005.59
2018-04-23T02:34:30.612Z,1005.65
2018-04-23T02:36:23.540Z,1005.58
2018-04-23T02:37:23.549Z,1005.59
2018-04-23T02:39:16.469Z,1005.54
2018-04-23T02:40:16.478Z,1005.59
2018-04-23T02:42:09.410Z,1005.60
2018-04-23T02:43:09.413Z,1005.56
2018-04-23T02:45:02.321Z,1005.58
2018-04-23T02:46:02.345Z,1005.54
2018-04-23T02:47:55.273Z,1005.54
2018-04-23T02:48:55.280Z,1005.54
2018-04-23T02:50:48.188Z,1005.57
2018-04-23T02:51:48.211Z,1005.60
2018-04-23T02:53:41.139Z,1005.60
2018-04-23T02:54:41.145Z,1005.61
2018-04-23T02:56:34.235Z,1005.59
2018-04-23T02:57:34.242Z,1005.63
2018-04-23T02:59:27.149Z,1005.64
2018-04-23T03:00:27.171Z,1005.67
2018-04-23T03:02:20.102Z,1005.63
2018-04-23T03:03:20.108Z,1005.66
2018-04-23T03:05:13.034Z,1005.68
2018-04-23T03:06:13.060Z,1005.69
2018-04-23T03:08:05.998Z,1005.73
2018-04-23T03:09:06.002Z,1005.69
2018-04-23T03:10:58.911Z,1005.69
2018-04-23T03:11:58.936Z,1005.74
2018-04-23T03:13:52.060Z,1005.75
2018-04-23T03:14:52.063Z,1005.75
2018-04-23T03:16:45.218Z,1005.69
2018-04-23T03:17:45.220Z,1005.65
2018-04-23T03:19:38.132Z,1005.63
2018-04-23T03:20:38.152Z,1005.64
2018-04-23T03:22:31.081Z,1005.65
2018-04-23T03:23:31.085Z,1005.67
2018-04-23T03:25:24.003Z,1005.73
2018-04-23T03:26:24.029Z,1005.71
2018-04-23T03:28:16.955Z,1005.69
2018-04-23T03:29:16.961Z,1005.68
2018-04-23T03:31:09.868Z,1005.65
2018-04-23T03:32:09.893Z,1005.61
2018-04-23T03:34:02.822Z,1005.61
2018-04-23T03:35:02.822Z,1005.62
2018-04-23T03:36:55.753Z,1005.64
2018-04-23T03:37:55.755Z,1005.68
2018-04-23T03:39:48.665Z,1005.75
2018-04-23T03:40:48.687Z,1005.76
2018-04-23T03:42:41.617Z,1005.78
2018-04-23T03:43:41.623Z,1005.78
2018-04-23T03:45:34.527Z,1005.76
2018-04-23T03:46:34.550Z,1005.77
2018-04-23T03:48:27.480Z,1005.87
2018-04-23T03:49:27.493Z,1005.84
2018-04-23T03:51:20.399Z,1005.80
2018-04-23T03:52:20.419Z,1005.78
2018-04-23T03:54:13.345Z,1005.79
2018-04-23T03:55:13.349Z,1005.79
2018-04-23T03:57:06.275Z,1005.77
2018-04-23T03:58:06.281Z,1005.81
2018-04-23T03:59:59.190Z,1005.85
2018-04-23T04:00:59.214Z,1005.89
2018-04-23T04:02:52.145Z,1005.91
2018-04-23T04:03:52.149Z,1005.88
2018-04-23T04:05:45.062Z,1005.91
2018-04-23T04:06:45.092Z,1005.88
2018-04-23T04:08:38.012Z,1005.92
2018-04-23T04:09:38.019Z,1005.94
2018-04-23T04:11:30.927Z,1005.98
2018-04-23T04:12:30.951Z,1005.98
2018-04-23T04:14:23.876Z,1006.02
2018-04-23T04:15:23.883Z,1006.01
2018-04-23T04:17:16.811Z,1006.07
2018-04-23T04:18:16.815Z,1006.07
2018-04-23T04:20:09.727Z,1006.13
2018-04-23T04:21:09.752Z,1006.16
2018-04-23T04:23:02.680Z,1006.22
2018-04-23T04:24:02.686Z,1006.25
2018-04-23T04:25:55.597Z,1006.29
2018-04-23T04:26:55.620Z,1006.27
2018-04-23T04:28:48.553Z,1006.31
2018-04-23T04:29:48.553Z,1006.33
2018-04-23T04:31:41.462Z,1006.34
2018-04-23T04:32:41.486Z,1006.33
2018-04-23T04:34:34.413Z,1006.31
2018-04-23T04:35:34.488Z,1006.32
2018-04-23T04:37:27.348Z,1006.36
2018-04-23T04:38:27.381Z,1006.37
2018-04-23T04:40:20.265Z,1006.35
2018-04-23T04:41:20.286Z,1006.34
2018-04-23T04:43:13.221Z,1006.38
2018-04-23T04:44:13.220Z,1006.41
2018-04-23T04:46:06.126Z,1006.41
2018-04-23T04:47:06.151Z,1006.40
2018-04-23T04:48:59.096Z,1006.39
2018-04-23T04:49:59.095Z,1006.37
2018-04-23T04:51:52.002Z,1006.38
2018-04-23T04:52:52.025Z,1006.45
2018-04-23T04:54:44.955Z,1006.46
2018-04-23T04:55:44.957Z,1006.48
2018-04-23T04:57:37.890Z,1006.54
2018-04-23T04:58:37.900Z,1006.53
2018-04-23T05:00:30.801Z,1006.60
2018-04-23T05:01:30.827Z,1006.63
2018-04-23T05:03:23.801Z,1006.64
2018-04-23T05:04:23.758Z,1006.64
2018-04-23T05:06:16.669Z,1006.63
2018-04-23T05:07:16.689Z,1006.65
2018-04-23T05:09:09.623Z,1006.67
2018-04-23T05:10:09.625Z,1006.69
2018-04-23T05:12:02.531Z,1006.63
2018-04-23T05:13:02.559Z,1006.64
2018-04-23T05:14:55.483Z,1006.67
2018-04-23T05:15:55.488Z,1006.69
2018-04-23T05:17:48.419Z,1006.65
2018-04-23T05:18:48.426Z,1006.67
2018-04-23T05:20:41.337Z,1006.67
2018-04-23T05:21:41.357Z,1006.62
2018-04-23T05:23:34.289Z,1006.67
2018-04-23T05:24:34.298Z,1006.68
2018-04-23T05:26:27.199Z,1006.68
2018-04-23T05:27:27.224Z,1006.65
2018-04-23T05:29:20.153Z,1006.63
2018-04-23T05:30:20.158Z,1006.64
2018-04-23T05:32:13.067Z,1006.61
2018-04-23T05:33:13.092Z,1006.59
2018-04-23T05:35:06.025Z,1006.61
2018-04-23T05:36:06.028Z,1006.58
2018-04-23T05:37:58.969Z,1006.67
2018-04-23T05:38:58.971Z,1006.69
2018-04-23T05:40:51.915Z,1006.73
2018-04-23T05:41:51.938Z,1006.68
2018-04-23T05:43:44.870Z,1006.69
2018-04-23T05:44:44.872Z,1006.69
2018-04-23T05:46:37.790Z,1006.66
2018-04-23T05:47:37.809Z,1006.66
2018-04-23T05:49:30.741Z,1006.69
2018-04-23T05:50:30.746Z,1006.71
2018-04-23T05:52:23.659Z,1006.72
2018-04-23T05:53:23.687Z,1006.78
2018-04-23T05:55:16.613Z,1006.80
2018-04-23T05:56:16.625Z,1006.80
2018-04-23T05:58:09.576Z,1006.82
2018-04-23T05:59:09.586Z,1006.88
2018-04-23T06:01:02.499Z,1006.89
2018-04-23T06:02:02.522Z,1006.89
2018-04-23T06:03:55.450Z,1006.94
2018-04-23T06:04:55.458Z,1006.96
2018-04-23T06:06:48.371Z,1007.00
2018-04-23T06:07:48.400Z,1007.02
2018-04-23T06:09:41.329Z,1007.05
2018-04-23T06:10:41.338Z,1007.08
2018-04-23T06:12:34.247Z,1007.08
2018-04-23T06:13:34.278Z,1007.08
2018-04-23T06:15:27.204Z,1007.09
2018-04-23T06:16:27.210Z,1007.09
2018-04-23T06:18:20.146Z,1007.13
2018-04-23T06:19:20.156Z,1007.10
2018-04-23T06:21:13.071Z,1007.14
2018-04-23T06:22:13.097Z,1007.13
2018-04-23T06:24:06.031Z,1007.13
2018-04-23T06:25:06.040Z,1007.16
2018-04-23T06:26:58.955Z,1007.17
2018-04-23T06:27:58.981Z,1007.16
2018-04-23T06:29:51.918Z,1007.14
2018-04-23T06:30:51.925Z,1007.10
2018-04-23T06:32:44.839Z,1007.13
2018-04-23T06:33:44.885Z,1007.13
2018-04-23T06:35:37.800Z,1007.18
2018-04-23T06:36:37.810Z,1007.17
2018-04-23T06:38:30.740Z,1007.23
2018-04-23T06:39:30.751Z,1007.21
2018-04-23T06:41:23.662Z,1007.27
2018-04-23T06:42:23.693Z,1007.27
2018-04-23T06:44:16.622Z,1007.34
2018-04-23T06:45:16.634Z,1007.37
2018-04-23T06:47:09.548Z,1007.37
2018-04-23T06:48:09.578Z,1007.38
2018-04-23T06:50:02.512Z,1007.41
2018-04-23T06:51:02.523Z,1007.41
2018-04-23T06:52:55.440Z,1007.42
2018-04-23T06:53:55.467Z,1007.45
2018-04-23T06:55:48.414Z,1007.51
2018-04-23T06:56:48.416Z,1007.53
2018-04-23T06:58:41.354Z,1007.52
2018-04-23T06:59:41.365Z,1007.50
2018-04-23T07:01:34.289Z,1007.54
2018-04-23T07:02:34.315Z,1007.45
2018-04-23T07:04:27.253Z,1007.47
2018-04-23T07:05:27.265Z,1007.54
2018-04-23T07:07:20.177Z,1007.51
2018-04-23T07:08:20.209Z,1007.51
2018-04-23T07:10:13.144Z,1007.58
2018-04-23T07:11:13.153Z,1007.53
2018-04-23T07:13:06.068Z,1007.52
2018-04-23T07:14:06.099Z,1007.56
2018-04-23T07:15:59.033Z,1007.57
2018-04-23T07:16:59.042Z,1007.54
2018-04-23T07:18:51.973Z,1007.54
2018-04-23T07:19:51.986Z,1007.51
2018-04-23T07:21:44.898Z,1007.57
2018-04-23T07:22:44.923Z,1007.55
2018-04-23T07:24:37.861Z,1007.62
2018-04-23T07:25:37.869Z,1007.65
2018-04-23T07:27:30.784Z,1007.59
2018-04-23T07:28:30.813Z,1007.65
2018-04-23T07:30:23.756Z,1007.67
2018-04-23T07:31:23.763Z,1007.68
2018-04-23T07:33:16.688Z,1007.66
2018-04-23T07:34:16.707Z,1007.66
2018-04-23T07:36:09.646Z,1007.68
2018-04-23T07:37:09.653Z,1007.65
2018-04-23T07:39:02.588Z,1007.63
2018-04-23T07:40:02.599Z,1007.64
2018-04-23T07:41:55.510Z,1007.62
2018-04-23T07:42:55.539Z,1007.59
2018-04-23T07:44:48.471Z,1007.65
2018-04-23T07:45:48.480Z,1007.66
2018-04-23T07:47:41.396Z,1007.71
2018-04-23T07:48:41.423Z,1007.71
2018-04-23T07:50:34.357Z,1007.72
2018-04-23T07:51:34.369Z,1007.76
2018-04-23T07:53:27.282Z,1007.82
2018-04-23T07:54:27.308Z,1007.79
2018-04-23T07:56:20.243Z,1007.82
2018-04-23T07:57:20.254Z,1007.81
2018-04-23T07:59:13.222Z,1007.84
2018-04-23T08:00:13.229Z,1007.87
2018-04-23T08:02:06.147Z,1007.92
2018-04-23T08:03:06.175Z,1007.90
2018-04-23T08:04:59.108Z,1007.98
2018-04-23T08:05:59.118Z,1007.99
2018-04-23T08:07:52.041Z,1008.01
2018-04-23T08:08:52.065Z,1008.02
2018-04-23T08:10:45.010Z,1008.04
2018-04-23T08:11:45.023Z,1008.09
2018-04-23T08:13:37.938Z,1008.14
2018-04-23T08:14:37.965Z,1008.17
2018-04-23T08:16:30.904Z,1008.26
2018-04-23T08:17:30.914Z,1008.22
2018-04-23T08:19:23.860Z,1008.27
2018-04-23T08:20:23.867Z,1008.28
2018-04-23T08:22:16.786Z,1008.31
2018-04-23T08:23:16.814Z,1008.34
2018-04-23T08:25:09.748Z,1008.36
2018-04-23T08:26:09.760Z,1008.35
2018-04-23T08:28:03.169Z,1008.32
2018-04-23T08:29:03.196Z,1008.34
2018-04-23T08:30:56.134Z,1008.34
2018-04-23T08:31:56.144Z,1008.37
2018-04-23T08:33:49.064Z,1008.33
2018-04-23T08:34:49.089Z,1008.35
2018-04-23T08:36:42.522Z,1008.36
2018-04-23T08:37:42.532Z,1008.44
2018-04-23T08:39:35.468Z,1008.42
2018-04-23T08:40:35.478Z,1008.46
2018-04-23T08:42:28.407Z,1008.41
2018-04-23T08:43:28.431Z,1008.42
2018-04-23T08:45:21.383Z,1008.48
2018-04-23T08:46:21.385Z,1008.52
2018-04-23T08:48:14.308Z,1008.50
2018-04-23T08:49:14.341Z,1008.47
2018-04-23T08:51:07.285Z,1008.48
2018-04-23T08:52:07.290Z,1008.52
2018-04-23T08:54:00.702Z,1008.60
2018-04-23T08:55:00.730Z,1008.57
2018-04-23T08:56:53.667Z,1008.69
2018-04-23T08:57:53.685Z,1008.61
2018-04-23T08:59:46.611Z,1008.62
2018-04-23T09:00:46.622Z,1008.59
2018-04-23T09:02:39.538Z,1008.61
2018-04-23T09:03:39.566Z,1008.65
2018-04-23T09:05:32.504Z,1008.64
2018-04-23T09:06:32.511Z,1008.64
2018-04-23T09:08:25.433Z,1008.70
2018-04-23T09:09:25.507Z,1008.67
2018-04-23T09:11:18.394Z,1008.69
2018-04-23T09:12:18.401Z,1008.66
2018-04-23T09:14:11.322Z,1008.71
2018-04-23T09:15:11.348Z,1008.64
2018-04-23T09:17:04.786Z,1008.71
2018-04-23T09:18:04.792Z,1008.70
2018-04-23T09:19:57.724Z,1008.73
2018-04-23T09:20:57.731Z,1008.60
2018-04-23T09:22:50.646Z,1008.73
2018-04-23T09:23:50.675Z,1008.76
2018-04-23T09:25:43.610Z,1008.81
2018-04-23T09:26:43.618Z,1008.79
2018-04-23T09:28:36.533Z,1008.80
2018-04-23T09:29:36.561Z,1008.76
2018-04-23T09:31:29.496Z,1008.75
2018-04-23T09:32:29.504Z,1008.81
2018-04-23T09:34:22.422Z,1008.76
2018-04-23T09:35:22.449Z,1008.86
2018-04-23T09:37:15.384Z,1008.82
2018-04-23T09:38:15.394Z,1008.78
2018-04-23T09:40:08.352Z,1008.87
2018-04-23T09:41:08.345Z,1008.87
2018-04-23T09:43:01.259Z,1008.84
2018-04-23T09:44:01.286Z,1008.87
2018-04-23T09:45:54.232Z,1008.93
2018-04-23T09:46:54.255Z,1008.88
2018-04-23T09:48:47.157Z,1008.94
2018-04-23T09:49:47.186Z,1008.92
2018-04-23T09:51:40.134Z,1009.06
2018-04-23T09:52:40.145Z,1009.02
2018-04-23T09:54:33.065Z,1008.97
2018-04-23T09:55:33.093Z,1008.99
2018-04-23T09:57:26.048Z,1008.97
2018-04-23T09:58:26.054Z,1009.03
2018-04-23T10:00:19.017Z,1009.00
2018-04-23T10:01:19.007Z,1009.07
2018-04-23T10:03:11.934Z,1009.09
2018-04-23T10:04:11.959Z,1009.04
2018-04-23T10:06:04.938Z,1009.09
2018-04-23T10:07:04.914Z,1009.13
2018-04-23T10:08:57.836Z,1009.06
2018-04-23T10:09:57.867Z,1009.11
2018-04-23T10:11:51.303Z,1009.12
2018-04-23T10:12:51.317Z,1009.10
2018-04-23T10:14:44.229Z,1009.11
2018-04-23T10:15:44.257Z,1009.11
2018-04-23T10:17:37.197Z,1009.16
2018-04-23T10:18:37.208Z,1009.12
2018-04-23T10:20:30.174Z,1009.11
2018-04-23T10:21:30.155Z,1009.12
2018-04-23T10:23:23.074Z,1009.16
2018-04-23T10:24:23.107Z,1009.15
2018-04-23T10:26:16.039Z,1009.15
2018-04-23T10:27:16.049Z,1009.13
2018-04-23T10:29:08.978Z,1009.20
2018-04-23T10:30:08.998Z,1009.07
2018-04-23T10:32:02.432Z,1009.05
2018-04-23T10:33:02.443Z,1009.05
2018-04-23T10:34:55.401Z,1009.05
2018-04-23T10:35:55.398Z,1009.13
2018-04-23T10:37:48.830Z,1009.09
2018-04-23T10:38:48.842Z,1009.09
2018-04-23T10:40:41.803Z,1009.00
2018-04-23T10:41:41.793Z,1009.07
2018-04-23T10:43:34.732Z,1009.11
2018-04-23T10:44:34.746Z,1009.12
2018-04-23T10:46:27.744Z,1009.19
2018-04-23T10:47:27.755Z,1009.16
2018-04-23T10:49:20.791Z,1009.20
2018-04-23T10:50:20.816Z,1009.25
2018-04-23T10:52:13.857Z,1009.25
2018-04-23T10:53:13.868Z,1009.32
2018-04-23T10:55:06.897Z,1009.37
2018-04-23T10:56:06.928Z,1009.38
2018-04-23T10:57:59.865Z,1009.31
2018-04-23T10:58:59.875Z,1009.33
2018-04-23T11:00:52.831Z,1009.25
2018-04-23T11:01:52.879Z,1009.34
2018-04-23T11:03:45.859Z,1009.31
2018-04-23T11:04:45.891Z,1009.30
2018-04-23T11:06:38.939Z,1009.23
2018-04-23T11:07:38.943Z,1009.27
2018-04-23T11:09:31.970Z,1009.21
2018-04-23T11:10:31.997Z,1009.22
2018-04-23T11:12:24.939Z,1009.27
2018-04-23T11:13:24.946Z,1009.23
2018-04-23T11:15:17.892Z,1009.26
2018-04-23T11:17:30.916Z,1009.27
2018-04-23T11:18:30.925Z,1009.27
2018-04-23T11:20:24.361Z,1009.29
2018-04-23T11:21:24.391Z,1009.29
2018-04-23T11:23:17.438Z,1009.28
2018-04-23T11:24:17.450Z,1009.29
2018-04-23T11:26:10.493Z,1009.23
2018-04-23T11:27:10.506Z,1009.29
2018-04-23T11:29:03.532Z,1009.31
2018-04-23T11:30:03.564Z,1009.28
2018-04-23T11:31:56.609Z,1009.21
2018-04-23T11:32:56.619Z,1009.25
2018-04-23T11:34:50.061Z,1009.29
2018-04-23T11:35:50.089Z,1009.32
2018-04-23T11:37:43.131Z,1009.35
2018-04-23T11:38:43.193Z,1009.31
2018-04-23T11:40:36.167Z,1009.33
2018-04-23T11:41:36.196Z,1009.30
2018-04-23T11:43:29.242Z,1009.33
2018-04-23T11:44:29.254Z,1009.33
2018-04-23T11:46:22.305Z,1009.30
2018-04-23T11:47:22.308Z,1009.34
2018-04-23T11:49:15.334Z,1009.29
2018-04-23T11:50:15.367Z,1009.33
2018-04-23T11:52:08.412Z,1009.38
2018-04-23T11:53:08.470Z,1009.36
2018-04-23T11:55:01.447Z,1009.39
2018-04-23T11:56:01.477Z,1009.33
2018-04-23T11:57:54.524Z,1009.36
2018-04-23T11:58:54.551Z,1009.35
2018-04-23T12:00:47.562Z,1009.38
2018-04-23T12:01:47.592Z,1009.44
2018-04-23T12:03:40.638Z,1009.43
2018-04-23T12:04:40.647Z,1009.45
2018-04-23T12:06:34.105Z,1009.39
2018-04-23T12:07:34.113Z,1009.39
2018-04-23T12:09:27.146Z,1009.39
2018-04-23T12:10:27.175Z,1009.44
2018-04-23T12:12:20.116Z,1009.44
2018-04-23T12:13:20.131Z,1009.44
2018-04-23T12:15:13.149Z,1009.45
2018-04-23T12:16:13.189Z,1009.39
2018-04-23T12:18:06.228Z,1009.36
2018-04-23T12:19:06.235Z,1009.38
2018-04-23T12:20:59.331Z,1009.35
2018-04-23T12:21:59.292Z,1009.37
2018-04-23T12:23:52.334Z,1009.36
2018-04-23T12:24:52.345Z,1009.39
2018-04-23T12:26:45.396Z,1009.42
2018-04-23T12:27:45.402Z,1009.39
2018-04-23T12:29:38.428Z,1009.45
2018-04-23T12:30:38.461Z,1009.50
2018-04-23T12:32:31.917Z,1009.44
2018-04-23T12:33:31.927Z,1009.47
2018-04-23T12:35:24.950Z,1009.48
2018-04-23T12:36:24.980Z,1009.47
2018-04-23T12:38:18.029Z,1009.43
2018-04-23T12:39:18.044Z,1009.47
2018-04-23T12:41:10.963Z,1009.41
2018-04-23T12:42:10.990Z,1009.44
2018-04-23T12:44:04.036Z,1009.42
2018-04-23T12:45:04.047Z,1009.45
2018-04-23T12:46:57.092Z,1009.43
2018-04-23T12:47:57.114Z,1009.46
2018-04-23T12:49:50.128Z,1009.40
2018-04-23T12:50:50.158Z,1009.45
2018-04-23T12:52:43.105Z,1009.37
2018-04-23T12:53:43.112Z,1009.36
2018-04-23T12:55:36.140Z,1009.33
2018-04-23T12:56:36.169Z,1009.29
2018-04-23T12:58:29.119Z,1009.23
2018-04-23T12:59:29.122Z,1009.23
2018-04-23T13:01:22.052Z,1009.32
2018-04-23T13:02:22.080Z,1009.36
2018-04-23T13:04:15.124Z,1009.30
2018-04-23T13:05:15.132Z,1009.27
2018-04-23T13:07:08.200Z,1009.24
2018-04-23T13:08:08.190Z,1009.26
2018-04-23T13:10:01.255Z,1009.26
2018-04-23T13:11:01.245Z,1009.28
2018-04-23T13:12:54.192Z,1009.25
2018-04-23T13:13:54.199Z,1009.29
2018-04-23T13:15:47.228Z,1009.28
2018-04-23T13:16:47.256Z,1009.25
2018-04-23T13:18:40.713Z,1009.25
2018-04-23T13:19:40.726Z,1009.22
2018-04-23T13:21:33.752Z,1009.27
2018-04-23T13:22:33.836Z,1009.21
2018-04-23T13:24:26.827Z,1009.22
2018-04-23T13:25:26.831Z,1009.25
2018-04-23T13:27:19.883Z,1009.29
2018-04-23T13:28:19.890Z,1009.26
2018-04-23T13:30:13.328Z,1009.31
2018-04-23T13:31:13.357Z,1009.33
2018-04-23T13:33:06.405Z,1009.19
2018-04-23T13:34:06.413Z,1009.10
2018-04-23T13:35:59.444Z,1009.16
2018-04-23T13:36:59.469Z,1009.23
2018-04-23T13:38:52.924Z,1009.25
2018-04-23T13:39:52.938Z,1009.22
2018-04-23T13:41:45.965Z,1009.22
2018-04-23T13:42:45.996Z,1009.24
2018-04-23T13:44:39.037Z,1009.25
2018-04-23T13:45:39.046Z,1009.23
2018-04-23T13:47:32.075Z,1009.18
2018-04-23T13:48:32.103Z,1009.11
2018-04-23T13:50:25.149Z,1009.17
2018-04-23T13:51:25.158Z,1009.17
2018-04-23T13:53:18.207Z,1009.29
2018-04-23T13:54:18.216Z,1009.31
2018-04-23T13:56:16.166Z,1009.23
2018-04-23T13:57:23.363Z,1009.23
2018-04-23T13:59:09.135Z,1009.20
2018-04-23T14:00:09.141Z,1009.27
2018-04-23T14:02:02.077Z,1009.23
2018-04-23T14:03:02.097Z,1009.29
2018-04-23T14:04:55.142Z,1009.17
2018-04-23T14:05:55.153Z,1009.16
2018-04-23T14:07:48.175Z,1008.99
2018-04-23T14:08:48.204Z,1009.11
2018-04-23T14:10:42.693Z,1009.05
2018-04-23T14:11:42.694Z,1009.15
2018-04-23T14:13:35.621Z,1009.05
2018-04-23T14:14:35.652Z,1008.96
2018-04-23T14:16:28.695Z,1008.98
2018-04-23T14:17:28.706Z,1009.11
2018-04-23T14:19:21.650Z,1009.12
2018-04-23T14:20:21.659Z,1009.07
2018-04-23T14:22:14.584Z,1009.09
2018-04-23T14:23:14.612Z,1009.03
2018-04-23T14:25:07.557Z,1009.06
2018-04-23T14:26:07.566Z,1009.05
2018-04-23T14:28:00.493Z,1009.09
2018-04-23T14:29:00.520Z,1009.04
2018-04-23T14:30:53.468Z,1009.06
2018-04-23T14:31:53.476Z,1009.08
2018-04-23T14:33:46.503Z,1009.15
2018-04-23T14:34:46.532Z,1009.12
2018-04-23T14:36:39.991Z,1009.11
2018-04-23T14:37:40.020Z,1009.11
2018-04-23T14:39:33.044Z,1009.12
2018-04-23T14:40:33.053Z,1009.08
2018-04-23T14:42:25.979Z,1009.08
2018-04-23T14:43:26.012Z,1009.07
2018-04-23T14:45:18.960Z,1009.06
2018-04-23T14:46:18.961Z,1009.00
2018-04-23T14:48:11.888Z,1009.12
2018-04-23T14:49:11.914Z,1009.11
2018-04-23T14:51:04.871Z,1009.04
2018-04-23T14:52:04.871Z,1009.06
2018-04-23T14:53:57.898Z,1009.12
2018-04-23T14:54:57.926Z,1009.06
2018-04-23T14:56:52.405Z,1009.08
2018-04-23T14:57:52.416Z,1009.11
2018-04-23T14:59:45.340Z,1009.09
2018-04-23T15:00:45.367Z,1009.16
2018-04-23T15:02:38.313Z,1009.17
2018-04-23T15:03:38.321Z,1009.12
2018-04-23T15:05:31.371Z,1009.15
2018-04-23T15:06:31.380Z,1009.17
2018-04-23T15:08:24.338Z,1009.08
2018-04-23T15:09:24.332Z,1009.07
2018-04-23T15:11:17.277Z,1009.10
2018-04-23T15:12:17.286Z,1009.14
2018-04-23T15:14:10.314Z,1009.17
2018-04-23T15:15:10.346Z,1009.14
2018-04-23T15:17:03.289Z,1009.14
2018-04-23T15:18:03.294Z,1009.17
2018-04-23T15:19:56.735Z,1009.15
2018-04-23T15:20:56.765Z,1009.16
2018-04-23T15:22:49.809Z,1009.21
2018-04-23T15:23:49.818Z,1009.15
2018-04-23T15:25:42.846Z,1009.14
2018-04-23T15:26:42.874Z,1009.21
2018-04-23T15:28:36.377Z,1009.19
2018-04-23T15:29:36.344Z,1009.21
2018-04-23T15:31:29.795Z,1009.25
2018-04-23T15:32:29.806Z,1009.25
2018-04-23T15:34:23.249Z,1009.26
2018-04-23T15:35:23.273Z,1009.25
2018-04-23T15:37:17.243Z,1009.31
2018-04-23T15:38:17.248Z,1009.32
2018-04-23T15:40:10.176Z,1009.40
2018-04-23T15:41:10.261Z,1009.42
2018-04-23T15:43:06.218Z,1009.35
2018-04-23T15:44:06.226Z,1009.35
2018-04-23T15:45:59.256Z,1009.38
2018-04-23T15:46:59.283Z,1009.41
2018-04-23T15:48:52.228Z,1009.34
2018-04-23T15:49:52.237Z,1009.35
2018-04-23T15:51:45.183Z,1009.35
2018-04-23T15:52:45.226Z,1009.40
2018-04-23T15:54:38.122Z,1009.38
2018-04-23T15:55:38.146Z,1009.44
2018-04-23T15:57:31.192Z,1009.49
2018-04-23T15:58:31.203Z,1009.46
2018-04-23T16:00:24.640Z,1009.41
2018-04-23T16:01:24.666Z,1009.43
2018-04-23T16:03:17.619Z,1009.41
2018-04-23T16:04:17.623Z,1009.48
2018-04-23T16:06:10.650Z,1009.43
2018-04-23T16:07:10.679Z,1009.40
2018-04-23T16:09:03.623Z,1009.30
2018-04-23T16:10:03.636Z,1009.36
2018-04-23T16:11:56.557Z,1009.38
2018-04-23T16:12:56.583Z,1009.37
2018-04-23T16:14:50.046Z,1009.41
2018-04-23T16:15:50.055Z,1009.41
2018-04-23T16:17:43.509Z,1009.46
2018-04-23T16:18:43.517Z,1009.55
2018-04-23T16:20:37.981Z,1009.60
2018-04-23T16:21:38.010Z,1009.57
2018-04-23T16:23:30.956Z,1009.50
2018-04-23T16:24:30.971Z,1009.51
2018-04-23T16:26:23.885Z,1009.61
2018-04-23T16:27:23.915Z,1009.66
2018-04-23T16:29:16.861Z,1009.59
2018-04-23T16:30:16.867Z,1009.46
2018-04-23T16:32:09.793Z,1009.39
2018-04-23T16:33:09.820Z,1009.42
2018-04-23T16:35:02.791Z,1009.39
2018-04-23T16:36:02.790Z,1009.44
2018-04-23T16:37:55.831Z,1009.56
2018-04-23T16:38:55.837Z,1009.61
2018-04-23T16:40:48.786Z,1009.60
2018-04-23T16:41:48.792Z,1009.63
2018-04-23T16:43:41.835Z,1009.66
2018-04-23T16:44:41.845Z,1009.60
2018-04-23T16:46:34.877Z,1009.61
2018-04-23T16:47:34.909Z,1009.59
2018-04-23T16:49:27.951Z,1009.62
2018-04-23T16:50:27.957Z,1009.55
2018-04-23T16:52:21.396Z,1009.58
2018-04-23T16:53:21.423Z,1009.59
2018-04-23T16:55:14.367Z,1009.68
2018-04-23T16:56:14.372Z,1009.61
2018-04-23T16:58:07.303Z,1009.59
2018-04-23T16:59:07.328Z,1009.65
2018-04-23T17:01:01.814Z,1009.58
2018-04-23T17:02:01.821Z,1009.57
2018-04-23T17:03:55.277Z,1009.62
2018-04-23T17:04:55.282Z,1009.63
2018-04-23T17:06:48.198Z,1009.64
2018-04-23T17:07:48.232Z,1009.64
2018-04-23T17:09:41.698Z,1009.61
2018-04-23T17:10:41.709Z,1009.62
2018-04-23T17:12:35.144Z,1009.54
2018-04-23T17:13:35.169Z,1009.57
2018-04-23T17:15:28.114Z,1009.62
2018-04-23T17:16:28.122Z,1009.66
2018-04-23T17:18:21.053Z,1009.64
2018-04-23T17:19:21.079Z,1009.60
2018-04-23T17:21:14.535Z,1009.62
2018-04-23T17:22:14.545Z,1009.63
2018-04-23T17:24:07.459Z,1009.70
2018-04-23T17:25:07.488Z,1009.64
2018-04-23T17:27:00.471Z,1009.61